Date,TemperatureHighF,TemperatureAvgF,TemperatureLowF,DewpointHighF,DewpointAvgF,DewpointLowF,HumidityHigh,HumidityAvg,HumidityLow,PressureMaxIn,PressureMinIn,WindSpeedMaxMPH,WindSpeedAvgMPH,GustSpeedMaxMPH,PrecipitationSumIn
2013-1-1,21.1,5.8,0.0,46.2,33.2,-0.3,63,16,40,30.08,29.89,21,1,27,0.00
2013-1-2,23.0,6.3,0.0,46.2,37.0,12.7,79,21,65,30.02,29.88,20,0,25,0.00
2013-1-3,27.5,5.5,0.0,46.2,39.2,12.0,65,13,54,29.97,29.66,27,1,34,0.00
2013-1-4,38.9,10.3,0.0,46.2,36.8,13.2,67,16,40,30.05,29.66,15,1,31,0.00
2013-1-5,36.3,9.6,0.0,46.2,38.8,16.1,73,18,54,30.05,29.72,23,0,38,0.00
2013-1-6,26.0,7.2,0.0,46.2,37.3,13.2,72,19,64,30.13,29.69,11,0,28,0.00
2013-1-7,38.3,10.4,0.0,46.2,37.0,11.7,61,17,49,30.13,29.64,41,2,76,0.00
2013-1-8,40.1,10.9,0.0,46.2,38.7,19.5,77,18,49,30.01,29.66,16,0,26,0.00
2013-1-9,36.3,2.6,0.0,46.2,44.4,21.0,59,4,55,30.31,29.60,23,1,49,0.00
2013-1-10,41.9,11.2,0.0,46.2,37.8,15.3,58,13,35,30.34,29.90,36,0,36,0.00
2013-1-11,41.6,8.5,0.0,46.2,44.2,35.8,89,18,85,29.89,29.44,14,1,29,0.00
2013-1-12,46.1,11.5,0.0,46.2,40.5,20.4,64,16,53,29.83,29.31,40,3,56,0.00
2013-1-13,22.9,5.1,0.0,46.2,38.3,9.9,68,15,58,29.95,29.80,10,0,13,0.00
2013-1-14,25.4,6.5,0.0,46.2,33.2,1.5,65,14,36,30.26,29.95,19,1,33,0.00
2013-1-15,29.1,7.6,0.0,46.2,32.3,-2.1,54,14,30,30.25,29.87,27,2,43,0.00
2013-1-16,31.3,1.3,0.0,46.2,45.2,20.4,73,3,64,29.94,29.40,10,0,24,0.00
2013-1-17,12.4,3.1,0.0,46.2,31.1,-5.4,64,17,45,30.26,29.96,28,1,43,0.00
2013-1-18,16.5,3.2,0.0,46.2,35.8,1.4,80,20,70,30.26,29.66,2,0,20,0.00
2013-1-19,31.2,8.2,0.0,46.2,38.4,15.7,82,24,75,29.72,29.32,17,0,23,0.00
2013-1-20,10.0,2.6,0.0,46.2,29.5,-6.3,74,21,51,30.13,29.62,21,0,41,0.00
2013-1-21,2.2,-0.1,-3.7,46.2,24.3,-23.2,59,17,37,30.09,29.86,36,3,54,0.00
2013-1-22,2.0,-0.3,-9.1,46.2,19.9,-20.7,56,21,44,30.21,30.04,33,3,37,0.00
2013-1-23,12.6,4.3,0.0,46.2,20.7,-11.7,63,28,49,30.31,29.95,30,2,38,0.00
2013-1-24,12.3,3.0,0.0,46.2,28.4,-8.0,61,17,41,30.62,30.32,9,0,19,0.00
2013-1-25,21.0,5.8,0.0,46.2,33.9,6.5,76,22,54,30.33,29.86,14,0,23,0.00
2013-1-26,22.2,6.8,0.0,46.2,35.2,9.1,75,21,58,30.31,29.98,11,0,20,0.00
2013-1-27,33.4,8.1,0.0,46.2,37.9,14.0,64,15,49,30.24,29.90,6,0,23,0.00
2013-1-28,34.3,9.4,0.0,46.2,41.5,28.3,94,26,81,29.91,29.73,6,0,14,0.04
2013-1-29,36.3,3.5,0.0,46.2,44.9,32.0,92,9,91,29.80,29.37,22,0,24,0.20
2013-1-30,24.5,5.9,0.0,46.2,39.0,16.5,91,23,81,29.50,29.28,22,2,31,0.00
2013-1-31,14.1,4.2,0.0,46.2,32.9,2.9,80,24,64,29.88,29.33,31,1,38,0.00
2013-2-1,9.9,3.9,0.0,46.2,23.6,-6.1,68,25,51,30.08,29.88,24,1,36,0.00
2013-2-3,14.0,12.1,10.5,3.4,-1.7,-4.9,64,53,47,29.87,29.79,26,2,40,0.00
2013-2-5,24.4,11.0,0.0,46.2,24.5,2.8,77,38,50,29.96,29.65,12,1,25,0.00
2013-2-6,22.4,6.2,0.0,46.2,32.5,0.9,69,20,54,30.16,29.97,11,0,21,0.00
2013-2-7,24.7,6.9,0.0,46.2,38.4,18.9,86,24,79,30.18,30.06,19,1,24,0.00
2013-2-8,0.0,0.0,0.0,46.2,46.2,46.2,0,0,100,30.34,30.27,0,0,11,0.00
2013-2-9,29.8,10.7,0.0,46.2,31.7,6.9,69,28,55,30.33,30.05,37,1,51,0.00
2013-2-11,33.5,1.9,0.0,46.2,45.4,32.0,94,5,94,29.31,29.17,0,0,0,0.02
2013-2-18,36.3,31.7,0.0,46.2,30.3,26.5,76,66,73,29.49,29.41,2,0,15,0.00
2013-2-19,15.2,6.5,0.0,46.2,27.9,6.1,86,39,78,29.94,29.58,34,4,49,0.00
2013-2-20,16.2,5.7,0.0,46.2,32.4,8.0,82,29,73,30.37,29.94,25,1,40,0.00
2013-2-21,23.0,7.3,0.0,46.2,36.9,15.7,88,28,81,30.43,30.26,17,1,26,0.00
2013-2-22,26.1,7.6,0.0,46.2,38.9,19.9,88,26,85,30.26,29.74,13,0,15,0.00
2013-2-23,33.4,11.7,0.0,46.2,38.3,18.1,89,32,77,29.77,29.62,9,0,11,0.17
2013-2-24,30.9,11.2,0.0,46.2,37.4,21.9,83,29,72,30.06,29.77,4,0,15,0.02
2013-2-25,36.9,12.8,0.0,46.2,37.2,21.6,82,25,56,30.08,30.00,18,1,23,0.00
2013-2-26,34.0,8.2,0.0,46.2,41.5,23.7,86,19,69,30.06,29.85,15,1,21,0.00
2013-2-27,33.1,10.4,0.0,46.2,40.4,26.5,95,28,77,29.88,29.74,23,3,32,0.00
2013-2-28,27.2,8.3,0.0,46.2,37.5,16.6,81,25,70,30.18,29.83,25,3,33,0.00
2013-3-1,23.5,8.2,0.0,46.2,33.5,9.0,73,23,54,30.32,30.17,21,2,28,0.00
2013-3-2,22.4,9.0,0.0,46.2,31.5,7.6,74,27,57,30.24,30.11,17,2,28,0.00
2013-3-3,24.7,8.7,0.0,46.2,32.8,8.5,65,22,55,30.12,30.02,16,1,24,0.00
2013-3-4,29.1,11.0,0.0,46.2,33.3,10.5,79,27,55,30.16,30.05,9,0,15,0.00
2013-3-5,27.6,9.6,0.0,46.2,35.4,10.3,78,27,62,30.12,30.04,17,2,27,0.00
2013-3-6,28.2,11.1,0.0,46.2,36.7,19.1,89,33,76,30.27,30.10,14,1,20,0.00
2013-3-7,28.5,9.9,0.0,46.2,34.2,11.4,70,24,56,30.40,30.25,10,0,17,0.00
2013-3-8,40.6,14.5,0.0,46.2,33.9,12.7,88,24,38,30.42,30.18,22,1,43,0.01
2013-3-9,36.6,13.7,0.0,46.2,39.3,22.6,87,30,70,30.19,29.75,25,1,44,0.02
2013-3-10,36.6,12.7,0.0,46.2,40.3,26.1,92,30,77,29.90,29.67,17,1,26,0.01
2013-3-11,30.6,9.1,0.0,46.2,40.9,26.3,96,29,94,29.84,29.46,15,2,27,0.07
2013-3-12,22.7,8.8,0.0,46.2,32.3,11.0,80,32,67,29.86,29.53,27,1,34,0.00
2013-3-13,28.2,11.3,0.0,46.2,29.9,4.1,65,24,37,30.18,29.86,17,2,33,0.02
2013-3-14,40.6,14.7,0.0,46.2,32.2,8.5,76,19,27,30.19,29.83,22,1,36,0.14
2013-3-15,24.7,8.3,0.0,46.2,33.1,6.3,74,25,56,29.99,29.80,17,2,27,0.00
2013-3-16,23.0,9.0,0.0,46.2,32.7,12.0,84,32,65,30.06,29.86,5,0,9,0.16
2013-3-17,28.2,9.3,0.0,46.2,28.6,-0.3,60,24,38,30.27,30.06,9,0,20,0.04
2013-3-18,38.0,13.0,0.0,46.2,34.0,13.6,89,24,37,30.10,29.38,7,0,34,0.01
2013-3-19,27.9,12.0,0.0,46.2,32.4,12.4,76,29,55,29.75,29.29,60,6,74,0.01
2013-3-20,23.6,9.3,0.0,46.2,29.9,6.8,72,28,55,29.91,29.73,20,2,46,0.00
2013-3-21,24.8,9.0,0.0,46.2,33.6,11.9,81,26,59,29.95,29.83,14,1,37,0.00
2013-3-22,30.1,13.1,0.0,46.2,35.6,20.2,89,37,69,30.04,29.89,15,1,26,0.00
2013-3-23,31.6,12.6,0.0,46.2,36.3,19.9,81,29,64,30.11,30.00,12,1,21,0.00
2013-3-24,31.2,11.9,0.0,46.2,36.9,20.5,81,29,68,30.08,29.87,21,2,28,0.00
2013-3-25,32.2,12.3,0.0,46.2,37.5,22.6,84,30,69,30.04,29.86,17,2,30,0.00
2013-3-26,37.5,14.9,0.0,46.2,38.6,24.5,90,32,63,30.13,30.03,17,1,23,0.00
2013-3-27,39.8,18.0,0.0,46.2,33.4,16.4,66,23,41,30.19,30.11,25,2,30,0.00
2013-3-28,41.3,17.8,0.0,46.2,36.4,17.4,69,27,48,30.24,30.16,13,1,18,0.00
2013-3-29,47.1,22.2,0.0,46.2,31.4,14.4,61,20,30,30.23,30.08,4,0,15,0.00
2013-3-30,42.6,17.1,0.0,46.2,39.5,19.4,88,33,43,30.07,29.65,33,2,51,0.13
2013-3-31,42.1,17.3,0.0,46.2,35.4,17.4,87,29,41,29.76,29.46,33,3,54,0.14
2013-4-1,27.0,11.2,0.0,46.2,28.3,4.4,75,27,39,30.01,29.76,14,1,43,0.01
2013-4-2,31.5,13.6,0.0,46.2,28.3,1.2,54,21,27,30.20,29.99,19,2,35,0.00
2013-4-3,41.2,16.8,0.0,46.2,30.1,5.1,62,23,22,30.36,30.02,15,1,30,0.00
2013-4-4,45.7,18.3,0.0,46.2,37.1,20.7,62,23,37,30.02,29.81,19,1,40,0.00
2013-4-5,33.7,14.4,0.0,46.2,31.7,12.5,57,23,46,30.22,30.00,15,1,26,0.00
2013-4-6,38.8,11.4,0.0,46.2,40.4,25.7,86,26,73,30.12,29.47,11,0,35,0.11
2013-4-7,37.2,14.6,0.0,46.2,38.8,27.0,86,31,68,29.94,29.44,14,1,30,0.00
2013-4-8,34.9,14.4,0.0,46.2,40.1,30.2,95,38,87,29.97,29.80,0,0,6,0.25
2013-4-9,37.2,14.5,0.0,46.2,39.1,22.8,95,36,69,30.16,29.97,16,2,33,0.00
2013-4-10,37.5,16.4,0.0,46.2,35.5,20.1,70,28,52,30.18,30.07,16,2,23,0.00
2013-4-11,33.7,14.8,0.0,46.2,34.6,19.3,70,29,60,30.11,29.84,18,2,29,0.00
2013-4-12,31.5,13.0,0.0,46.2,38.1,26.5,94,40,90,29.82,29.63,15,1,23,0.15
2013-4-13,32.8,15.1,0.0,46.2,36.8,21.9,89,39,65,29.85,29.63,19,2,27,0.18
2013-4-14,40.3,16.3,0.0,46.2,38.8,24.7,79,32,65,29.97,29.82,13,0,18,0.03
2013-4-15,57.0,22.3,0.0,46.2,39.2,20.4,92,26,30,29.82,29.51,41,2,60,0.28
2013-4-16,45.1,21.3,0.0,46.2,36.6,25.6,66,31,47,30.29,29.74,23,3,38,0.00
2013-4-17,38.0,15.7,0.0,46.2,39.3,29.1,83,34,76,30.39,30.02,11,0,14,0.00
2013-4-18,36.6,12.8,0.0,46.2,42.2,34.2,96,34,95,30.02,29.28,13,0,19,0.16
2013-4-19,36.8,14.2,0.0,46.2,37.3,17.6,95,39,72,29.69,28.98,62,4,71,0.14
2013-4-20,31.2,14.3,0.0,46.2,29.1,10.7,75,30,45,30.38,29.69,16,2,32,0.08
2013-4-21,45.8,20.4,0.0,46.2,32.4,9.4,71,23,28,30.44,30.14,37,2,58,0.00
2013-4-22,42.6,16.5,0.0,46.2,41.3,31.5,91,34,73,30.17,30.05,9,0,23,0.22
2013-4-23,36.6,16.2,0.0,46.2,39.1,26.8,93,38,73,30.10,29.79,19,1,31,0.04
2013-4-24,42.2,20.0,0.0,46.2,35.2,19.6,73,28,43,29.92,29.82,6,0,12,0.02
2013-4-25,46.5,20.7,0.0,46.2,37.4,21.4,92,30,38,30.13,29.78,17,1,28,0.28
2013-4-26,59.9,25.9,0.0,46.2,39.7,25.0,81,30,39,30.14,29.97,26,1,46,0.04
2013-4-27,67.6,29.3,0.0,47.5,43.0,34.3,88,32,48,30.08,29.88,4,0,15,0.00
2013-4-28,72.3,34.6,0.0,46.2,42.5,32.6,71,20,28,29.89,29.65,19,2,48,0.00
2013-4-29,62.1,27.1,0.0,52.5,47.1,40.6,93,36,64,29.72,29.64,6,0,10,0.00
2013-4-30,71.1,22.3,0.0,56.0,48.7,46.2,82,20,55,29.75,29.49,31,2,65,0.00
2013-5-1,56.9,26.4,0.0,48.4,41.6,31.6,89,35,51,30.32,29.73,17,2,29,0.01
2013-5-2,37.5,10.9,0.0,46.2,41.8,30.1,91,27,83,30.40,30.28,19,2,33,0.00
2013-5-3,37.6,14.8,0.0,46.2,40.5,31.3,92,35,81,30.32,30.13,16,2,23,0.25
2013-5-4,44.6,22.2,0.0,46.2,40.3,33.9,92,43,71,30.17,30.10,16,2,27,0.00
2013-5-5,47.1,22.2,0.0,46.2,40.9,33.8,83,35,64,30.15,30.07,13,1,17,0.00
2013-5-6,48.5,23.6,0.0,46.2,41.3,35.2,84,36,62,30.09,30.00,9,0,13,0.00
2013-5-7,62.0,29.5,0.0,46.2,43.6,38.9,92,34,43,30.06,29.92,6,0,9,0.00
2013-5-8,71.8,32.1,0.0,46.2,41.8,34.1,51,18,27,29.94,29.88,4,0,8,0.00
2013-5-9,43.9,18.8,0.0,46.2,41.1,32.6,92,41,77,30.13,29.91,16,1,27,0.03
2013-5-10,42.9,19.9,0.0,46.2,35.0,17.8,71,28,40,30.13,29.89,20,2,27,0.00
2013-5-11,46.0,18.6,0.0,46.2,38.4,23.5,92,27,42,29.89,29.67,34,1,46,0.04
2013-5-12,39.3,17.4,0.0,46.2,35.1,20.5,65,27,52,30.03,29.81,21,1,41,0.01
2013-5-13,48.2,23.8,0.0,46.2,33.6,16.6,52,22,31,30.05,29.82,13,0,24,0.00
2013-5-14,67.8,31.5,0.0,46.2,40.8,30.8,57,25,34,29.82,29.36,14,0,46,0.00
2013-5-15,74.9,35.2,0.0,46.2,40.1,28.2,47,13,19,29.65,29.34,43,5,58,0.00
2013-5-16,50.4,26.8,0.0,46.2,40.0,34.2,69,33,56,30.04,29.65,19,2,24,0.00
2013-5-17,52.6,27.4,0.0,46.2,40.7,35.3,83,38,54,30.15,30.04,6,0,12,0.00
2013-5-18,61.5,24.5,0.0,46.9,45.3,42.5,73,26,52,30.08,29.87,5,0,14,0.00
2013-5-19,72.0,32.4,0.0,56.5,49.1,44.5,84,33,52,29.87,29.75,19,1,43,0.00
2013-5-20,56.2,26.7,0.0,51.1,46.8,44.0,94,45,77,29.78,29.63,7,0,13,0.00
2013-5-21,53.5,21.7,0.0,50.5,46.6,43.9,96,40,82,29.68,29.57,9,0,13,0.00
2013-5-22,48.0,18.5,0.0,46.9,45.1,41.7,97,40,96,29.90,29.66,14,1,22,0.46
2013-5-23,46.4,23.2,0.0,46.2,36.1,25.1,83,36,47,30.27,29.90,25,4,38,0.00
2013-5-24,49.9,26.2,0.0,46.2,37.6,27.9,75,32,46,30.39,30.27,6,0,12,0.00
2013-5-25,52.3,28.6,0.0,46.2,38.4,28.6,85,31,41,30.37,30.27,9,0,13,0.00
2013-5-26,56.2,29.6,0.0,46.2,38.7,26.4,81,29,32,30.32,30.16,6,0,11,0.00
2013-5-27,62.3,31.1,0.0,46.2,41.1,33.3,80,31,38,30.17,29.90,5,0,11,0.00
2013-5-28,58.6,26.9,0.0,50.4,44.6,39.2,78,35,57,29.90,29.67,1,0,4,0.00
2013-5-29,70.3,33.4,0.0,55.9,49.0,44.4,84,39,53,29.76,29.66,6,0,16,0.00
2013-5-30,87.0,34.0,0.0,63.1,52.0,46.2,90,26,40,29.77,29.58,29,1,48,0.00
2013-5-31,82.2,38.8,0.0,61.2,52.6,46.2,86,31,38,29.65,29.53,40,2,54,0.00
2013-6-1,69.9,24.9,0.0,59.9,49.2,45.6,96,33,62,29.66,29.51,5,0,11,0.20
2013-6-2,51.0,25.6,0.0,46.2,40.4,33.5,91,37,52,29.96,29.66,18,2,39,0.00
2013-6-3,57.3,29.5,0.0,46.2,37.1,19.4,75,24,23,30.05,29.94,18,1,31,0.00
2013-6-4,58.7,30.2,0.0,46.2,37.5,25.3,66,22,29,30.15,30.05,1,0,9,0.00
2013-6-5,54.1,20.9,0.0,48.2,45.3,38.2,88,32,67,30.13,30.04,0,0,11,0.02
2013-6-6,55.6,25.3,0.0,48.0,45.7,42.8,94,40,64,30.05,29.96,1,0,9,0.00
2013-6-7,59.5,31.3,0.0,46.9,44.8,39.7,84,36,50,29.97,29.87,5,0,8,0.00
2013-6-8,66.0,33.9,0.0,47.2,42.1,29.7,78,29,27,29.96,29.86,0,0,7,0.00
2013-6-9,63.2,32.9,0.0,47.6,45.5,42.5,79,32,51,30.01,29.88,2,0,9,0.00
2013-6-10,69.3,34.7,0.0,58.8,49.3,46.2,80,35,54,29.88,29.70,5,0,15,0.00
2013-6-11,69.8,33.3,0.0,60.7,50.8,46.2,91,41,63,29.79,29.72,11,0,16,0.00
2013-6-12,75.8,39.5,0.0,54.4,47.7,44.6,65,27,35,29.80,29.72,15,0,19,0.00
2013-6-13,63.9,33.0,0.0,47.8,45.4,42.1,75,36,47,30.04,29.73,15,2,30,0.00
2013-6-14,58.6,31.4,0.0,46.2,41.3,31.5,75,30,38,30.12,29.95,3,0,6,0.00
2013-6-15,75.3,27.4,0.0,61.2,50.5,46.2,82,27,56,29.95,29.70,16,1,36,0.00
2013-6-16,78.1,38.7,0.0,58.0,48.1,45.4,84,30,32,29.79,29.63,41,1,49,0.00
2013-6-17,54.4,28.6,0.0,46.2,43.8,40.4,82,41,64,30.00,29.74,10,0,20,0.00
2013-6-18,64.7,33.5,0.0,46.2,42.5,33.8,88,31,34,30.11,30.00,6,0,15,0.00
2013-6-19,78.1,41.1,0.0,47.7,42.3,35.2,45,18,23,30.03,29.90,29,2,50,0.00
2013-6-20,72.5,31.7,0.0,62.8,51.2,46.2,91,36,52,30.06,29.91,0,0,11,0.07
2013-6-21,61.2,23.2,0.0,60.0,50.6,46.2,96,38,95,30.04,29.83,4,0,11,0.18
2013-6-22,61.6,30.5,0.0,58.5,50.6,46.2,97,50,83,30.02,29.89,9,0,13,0.00
2013-6-23,86.1,35.9,0.0,69.5,54.7,46.2,96,36,51,29.92,29.64,33,1,44,0.04
2013-6-24,78.8,41.4,0.0,65.6,53.4,46.2,81,33,47,29.82,29.68,1,0,14,0.00
2013-6-25,77.9,43.4,0.0,61.2,53.9,46.2,74,36,53,29.73,29.68,3,0,17,0.00
2013-6-26,88.2,38.5,0.0,68.0,55.6,46.2,86,29,48,29.71,29.57,15,0,29,0.00
2013-6-27,76.1,36.1,0.0,68.2,55.3,46.2,96,42,66,29.65,29.57,1,0,17,0.18
2013-6-28,63.4,30.2,0.0,60.3,51.6,46.2,96,48,88,29.66,29.53,10,0,15,0.16
2013-6-29,66.0,34.3,0.0,57.0,47.0,36.8,92,35,35,29.83,29.64,14,1,25,0.01
2013-6-30,68.1,36.7,0.0,53.6,48.0,43.9,80,35,47,30.00,29.83,4,0,11,0.00
2013-7-1,63.2,34.1,0.0,50.6,43.9,31.6,86,31,31,30.17,30.00,10,0,18,0.00
2013-7-2,64.0,35.2,0.0,50.4,45.8,41.5,79,35,48,30.14,30.03,6,0,9,0.00
2013-7-3,74.9,38.0,0.0,52.9,47.1,41.0,82,27,34,30.03,29.91,6,0,15,0.00
2013-7-4,84.7,45.1,0.0,62.7,53.0,46.2,75,31,37,29.92,29.81,14,0,40,0.00
2013-7-5,88.2,45.0,0.0,58.5,50.7,46.2,59,20,27,29.86,29.76,33,2,43,0.00
2013-7-6,92.1,47.3,0.0,62.4,52.6,46.2,64,22,27,29.83,29.74,40,3,43,0.00
2013-7-7,76.3,29.5,0.0,64.9,52.7,46.2,87,31,64,29.90,29.75,4,0,13,0.00
2013-7-8,66.9,31.0,0.0,61.8,51.6,46.2,96,43,75,29.94,29.85,4,0,15,0.00
2013-7-9,77.2,41.0,0.0,67.9,57.1,46.2,95,46,68,29.93,29.58,18,1,40,0.00
2013-7-10,73.5,39.1,0.0,56.3,49.7,46.2,75,31,42,29.84,29.57,31,2,43,0.00
2013-7-11,75.6,38.8,0.0,55.3,49.9,46.2,80,35,41,30.04,29.84,4,0,7,0.00
2013-7-12,84.5,44.3,0.0,59.5,52.0,46.2,75,27,35,30.00,29.91,36,2,42,0.00
2013-7-13,88.4,45.1,0.0,60.9,52.4,46.2,63,25,34,30.01,29.89,31,1,36,0.00
2013-7-14,89.5,43.8,0.0,60.1,52.5,46.2,67,26,31,30.10,30.00,30,1,38,0.00
2013-7-15,79.4,40.8,0.0,66.1,55.0,46.2,74,35,58,30.19,30.10,22,0,25,0.00
2013-7-16,91.4,44.4,0.0,76.1,59.5,46.2,87,37,47,30.14,30.01,25,1,37,0.27
2013-7-17,85.7,43.3,0.0,69.5,57.4,46.2,84,36,54,30.10,30.00,15,0,21,0.00
2013-7-18,87.4,21.8,0.0,76.3,53.3,46.2,95,22,61,30.01,29.61,18,0,34,0.27
2013-7-19,82.8,42.4,0.0,70.4,54.8,46.2,90,33,40,29.69,29.46,25,2,40,0.00
2013-7-20,62.0,31.8,0.0,47.6,45.8,43.1,66,31,53,29.96,29.63,19,1,25,0.00
2013-7-21,70.3,35.2,0.0,54.7,48.5,46.2,87,36,49,29.99,29.84,6,0,17,0.00
2013-7-22,84.5,36.9,0.0,66.1,53.0,46.2,72,27,48,29.84,29.45,34,3,54,0.00
2013-7-23,65.0,32.2,0.0,49.4,46.3,44.4,81,32,51,29.91,29.57,28,2,39,0.00
2013-7-24,73.2,35.8,0.0,52.7,47.0,40.8,72,25,38,29.97,29.88,9,0,25,0.00
2013-7-25,78.5,28.9,0.0,56.4,49.6,46.2,75,22,43,29.90,29.79,26,1,40,0.00
2013-7-26,66.0,16.4,0.0,63.4,50.0,46.2,92,23,88,29.84,29.74,0,0,2,0.14
2013-7-27,58.9,29.7,0.0,49.1,46.7,44.0,84,39,64,29.82,29.75,10,0,21,0.00
2013-7-28,54.4,21.7,0.0,51.8,48.1,46.2,95,38,90,29.88,29.66,17,0,31,0.14
2013-7-29,71.8,35.6,0.0,54.8,48.8,46.2,85,32,45,30.07,29.88,11,0,20,0.00
2013-7-30,76.7,36.5,0.0,59.2,51.4,46.2,74,30,43,30.06,29.95,23,2,39,0.00
2013-7-31,78.6,37.8,0.0,62.0,53.0,46.2,86,35,50,29.95,29.77,18,1,29,0.00
2013-8-1,71.8,38.0,0.0,55.7,50.5,46.2,74,34,52,29.79,29.75,12,0,25,0.00
2013-8-2,72.1,36.6,0.0,57.0,50.1,46.2,83,32,45,29.83,29.69,14,0,22,0.00
2013-8-3,67.8,34.3,0.0,54.0,49.4,46.2,73,33,58,30.05,29.84,16,1,32,0.00
2013-8-4,70.8,34.6,0.0,53.8,47.6,42.1,72,27,38,30.13,29.98,9,0,17,0.00
2013-8-5,66.6,31.3,0.0,59.9,51.6,46.2,88,40,65,29.98,29.72,25,0,34,0.04
2013-8-6,77.4,35.3,0.0,63.4,53.9,46.2,95,38,59,29.73,29.62,28,1,30,0.00
2013-8-7,67.8,34.3,0.0,60.3,50.7,42.1,95,39,41,29.90,29.59,17,0,28,0.00
2013-8-8,69.6,34.4,0.0,55.9,49.0,45.3,79,32,45,29.93,29.86,10,0,19,0.00
2013-8-9,71.3,35.2,0.0,55.2,48.1,44.5,84,30,39,29.95,29.80,35,2,45,0.00
2013-8-10,70.4,35.7,0.0,55.8,50.1,46.2,79,33,52,30.04,29.94,6,0,11,0.00
2013-8-11,75.3,33.7,0.0,60.5,51.2,46.2,81,31,52,29.98,29.90,12,0,19,0.01
2013-8-12,70.9,32.0,0.0,59.8,50.2,44.6,94,38,62,29.95,29.81,17,1,33,0.07
2013-8-13,60.9,29.4,0.0,51.6,46.7,43.5,86,33,56,30.08,29.94,17,1,29,0.00
2013-8-14,68.3,32.4,0.0,51.8,46.6,40.8,73,27,37,30.10,30.00,19,0,21,0.00
2013-8-15,77.0,39.1,0.0,55.9,48.1,42.4,63,25,33,30.00,29.93,18,0,21,0.00
2013-8-16,77.0,35.1,0.0,59.3,50.3,46.2,71,26,44,30.05,29.99,9,0,11,0.00
2013-8-17,83.0,39.4,0.0,59.8,51.2,46.2,67,26,35,30.09,30.00,20,1,30,0.00
2013-8-18,82.0,39.2,0.0,59.0,50.9,46.2,73,24,38,30.07,29.90,34,1,36,0.00
2013-8-19,84.0,39.4,0.0,64.6,54.0,46.2,70,28,50,29.91,29.77,26,2,36,0.00
2013-8-20,89.0,55.2,0.0,66.9,58.0,46.2,77,35,41,29.86,29.76,24,2,34,0.00
2013-8-21,90.5,31.3,0.0,71.9,54.8,46.2,89,26,50,29.85,29.69,28,0,40,0.42
2013-8-22,76.3,36.6,0.0,57.4,48.9,46.2,87,26,35,30.06,29.85,17,0,24,0.00
2013-8-23,74.0,33.6,0.0,60.6,51.2,46.2,76,29,51,30.13,30.03,6,0,14,0.00
2013-8-24,82.4,41.2,0.0,58.0,51.5,46.2,67,25,41,30.09,29.93,27,2,44,0.00
2013-8-25,94.3,37.2,0.0,72.0,56.6,46.2,79,27,45,29.94,29.77,29,1,40,0.00
2013-8-26,78.8,36.0,0.0,68.1,56.0,46.2,88,36,66,29.87,29.76,0,0,8,0.00
2013-8-27,82.4,33.6,0.0,70.6,56.3,46.2,95,34,65,29.84,29.72,0,0,15,0.00
2013-8-28,75.1,34.6,0.0,66.7,55.1,46.2,97,38,66,29.96,29.80,6,0,10,0.00
2013-8-29,89.0,33.2,0.0,68.1,53.6,46.2,87,22,40,29.97,29.70,17,0,25,0.00
2013-8-30,71.5,32.2,0.0,69.0,54.3,46.2,92,40,77,29.86,29.62,25,1,41,0.00
2013-8-31,76.7,30.6,0.0,65.2,53.4,46.2,90,34,67,29.84,29.67,5,0,9,0.00
2013-9-1,77.9,27.9,0.0,68.3,52.9,46.2,94,33,55,29.76,29.54,20,1,37,0.08
2013-9-2,62.4,25.0,0.0,49.8,46.9,45.2,88,29,55,29.90,29.75,15,1,42,0.00
2013-9-3,72.5,31.0,0.0,56.8,49.8,46.2,77,28,49,29.92,29.76,10,0,25,0.00
2013-9-4,60.4,27.7,0.0,46.2,45.2,40.8,72,30,54,30.11,29.76,15,0,21,0.00
2013-9-5,66.9,30.1,0.0,49.5,46.6,44.1,86,27,47,30.23,30.07,6,0,16,0.00
2013-9-6,80.9,34.4,0.0,70.9,54.3,46.2,89,35,62,30.06,29.76,33,2,43,0.20
2013-9-7,71.5,27.7,0.0,67.7,52.9,46.2,97,39,82,30.01,29.72,11,0,20,0.06
2013-9-8,65.2,31.2,0.0,56.7,50.2,46.2,86,37,67,30.10,29.92,3,0,13,0.00
2013-9-9,71.5,25.8,0.0,67.1,52.6,46.2,89,33,79,29.93,29.61,22,1,40,0.00
2013-9-10,80.3,35.1,0.0,69.5,56.0,46.2,97,37,62,29.79,29.60,12,0,25,0.03
2013-9-11,81.6,32.1,0.0,66.7,52.4,46.2,97,29,43,29.86,29.76,16,1,32,0.00
2013-9-12,59.2,22.9,0.0,50.8,47.1,43.3,90,33,67,30.09,29.82,14,1,32,0.14
2013-9-13,59.0,25.7,0.0,46.2,43.1,36.8,65,27,50,30.19,30.04,15,1,29,0.00
2013-9-14,71.1,28.5,0.0,54.9,46.3,42.0,71,22,41,30.04,29.81,29,2,46,0.00
2013-9-15,54.2,19.6,0.0,52.5,45.9,37.9,95,33,65,30.22,29.79,19,1,26,0.10
2013-9-16,58.3,24.7,0.0,46.2,43.5,38.1,84,25,51,30.37,30.22,6,0,11,0.00
2013-9-17,68.4,28.0,0.0,50.3,45.0,36.6,66,22,37,30.26,30.01,21,1,36,0.00
2013-9-18,65.0,25.1,0.0,61.2,51.2,46.2,91,34,82,30.00,29.77,19,0,31,0.02
2013-9-19,77.4,28.2,0.0,69.3,54.2,46.2,92,32,73,29.79,29.56,19,1,52,0.00
2013-9-20,71.3,27.7,0.0,66.2,51.7,46.2,97,32,57,29.66,29.50,21,0,33,0.01
2013-9-21,51.4,22.1,0.0,46.2,43.4,36.6,85,31,59,29.89,29.66,20,1,31,0.00
2013-9-22,51.6,21.4,0.0,46.2,42.8,36.4,69,27,59,30.03,29.89,9,0,12,0.00
2013-9-23,65.3,25.2,0.0,46.4,45.3,40.6,77,25,48,30.07,29.98,14,0,33,0.00
2013-9-24,70.1,27.9,0.0,54.0,48.2,46.2,89,28,48,30.03,29.90,16,0,38,0.00
2013-9-25,65.2,27.6,0.0,56.3,49.8,46.2,95,36,71,29.95,29.90,0,0,7,0.00
2013-9-26,75.8,29.7,0.0,54.7,48.1,46.2,96,24,39,30.02,29.93,5,0,23,0.00
2013-9-27,78.6,30.7,0.0,55.4,48.8,46.2,74,22,35,30.05,29.92,19,1,49,0.00
2013-9-28,75.4,27.1,0.0,56.0,49.3,46.2,72,21,45,29.94,29.61,24,1,53,0.00
2013-9-29,71.1,28.2,0.0,49.0,44.9,36.9,83,20,29,29.89,29.71,16,1,31,0.00
2013-9-30,71.3,33.4,0.0,46.2,44.8,39.9,69,23,34,29.85,29.59,32,2,58,0.00
2013-10-4,58.4,35.0,0.0,52.9,49.0,46.2,87,48,75,30.07,29.97,19,1,27,0.00
2013-10-5,50.8,8.8,0.0,48.8,46.6,46.2,94,16,92,30.07,29.77,5,0,11,0.00
2013-10-6,60.2,16.8,0.0,59.6,49.3,46.2,98,28,89,29.77,29.50,6,0,15,0.02
2013-10-7,55.0,19.9,0.0,46.2,44.1,37.4,85,23,54,29.93,29.54,18,1,36,0.00
2013-10-8,69.3,26.4,0.0,51.3,45.4,40.0,82,22,37,30.01,29.88,28,1,63,0.00
2013-10-9,75.8,27.1,0.0,49.7,46.9,46.2,60,16,37,30.01,29.88,21,1,44,0.00
2013-10-10,73.7,28.4,0.0,49.9,45.6,39.9,84,19,31,30.06,29.96,6,0,22,0.00
2013-10-11,71.5,26.2,0.0,53.9,48.1,46.2,96,26,47,30.02,29.88,11,0,28,0.00
2013-10-12,66.8,12.7,0.0,59.9,48.4,46.2,85,15,69,29.88,29.73,10,0,39,0.00
2013-10-13,54.8,19.1,0.0,46.2,43.6,36.4,76,21,51,30.32,29.88,14,0,23,0.00
2013-10-14,57.0,21.1,0.0,46.2,44.7,35.1,79,26,59,30.38,30.21,5,0,9,0.00
2013-10-15,52.6,12.5,0.0,51.2,46.7,43.0,95,23,80,30.20,29.62,0,0,7,0.07
2013-10-16,47.7,9.4,0.0,46.2,45.1,39.8,83,15,75,29.79,29.57,13,0,25,0.00
2013-10-17,55.9,19.8,0.0,46.2,42.8,34.3,82,22,45,29.80,29.64,13,0,18,0.00
2013-10-18,47.6,14.5,0.0,46.2,45.1,40.9,91,27,84,29.77,29.63,11,0,23,0.10
2013-10-19,52.3,18.5,0.0,46.2,41.5,29.9,84,26,45,29.76,29.55,11,0,30,0.02
2013-10-20,47.7,16.7,0.0,46.2,41.9,32.1,88,24,56,29.70,29.58,13,0,22,0.00
2013-10-21,42.6,13.7,0.0,46.2,40.1,24.8,82,22,53,29.66,29.53,27,1,60,0.00
2013-10-22,39.8,8.5,0.0,46.2,43.2,29.4,92,19,70,29.84,29.53,19,0,27,0.46
2013-10-23,40.8,22.8,0.0,46.2,33.8,22.1,78,38,50,29.83,29.74,20,2,32,0.07
2013-10-24,42.6,37.1,33.4,31.7,28.8,25.7,88,72,56,30.09,29.82,23,2,33,0.04
2013-10-25,43.6,38.5,32.2,31.8,27.3,21.6,86,66,43,30.15,29.51,23,4,41,0.00
2013-10-26,45.1,38.7,34.7,37.8,33.1,30.0,91,80,65,29.90,29.45,26,2,49,0.20
2013-10-27,44.9,38.5,33.5,36.6,31.0,28.3,91,75,55,30.05,29.73,20,1,35,0.19
2013-10-28,38.2,34.9,28.7,29.0,22.1,19.0,72,59,49,30.44,30.06,20,2,35,0.19
2013-10-29,38.8,32.2,26.6,30.9,22.9,18.4,89,70,45,30.43,30.15,17,0,17,0.01
2013-10-30,51.0,42.2,33.8,48.5,39.5,30.9,94,90,83,30.14,29.69,15,0,41,0.02
2013-10-31,52.5,50.0,46.8,50.2,48.2,45.7,97,94,91,29.69,29.08,11,0,27,0.26
2013-11-1,46.7,42.9,39.9,45.6,40.0,32.2,96,90,72,29.65,29.04,19,2,37,0.51
2013-11-2,41.1,39.1,36.6,35.6,31.4,27.5,88,74,62,30.09,29.65,17,1,22,0.07
2013-11-3,46.8,39.0,32.8,35.4,29.2,23.8,82,68,49,30.24,30.09,15,1,33,0.00
2013-11-4,49.2,46.8,43.1,42.3,38.7,35.4,81,73,67,30.14,29.90,18,2,51,0.01
2013-11-5,54.2,45.6,34.1,42.5,33.3,23.2,91,66,31,30.13,29.94,23,1,32,0.17
2013-11-6,41.1,37.5,34.7,38.4,32.3,23.6,94,82,63,29.93,29.74,20,3,42,1.06
2013-11-7,37.8,34.7,33.7,30.6,27.1,24.0,86,74,63,30.03,29.93,17,3,34,0.03
2013-11-8,43.5,36.9,33.2,32.0,23.9,17.5,86,61,36,30.11,29.86,19,2,31,0.01
2013-11-9,40.8,39.2,35.8,37.5,34.8,32.0,92,84,76,29.83,29.51,30,3,45,0.14
2013-11-10,39.3,37.0,34.9,33.9,29.4,26.0,90,74,60,30.11,29.72,23,3,39,0.28
2013-11-11,38.6,27.2,23.9,31.4,18.4,11.1,92,70,52,30.43,29.90,32,3,50,0.00
2013-11-12,29.5,23.9,19.2,14.0,11.2,8.3,70,58,48,30.54,30.33,29,2,53,0.00
2013-11-13,49.6,33.8,16.2,30.2,19.1,9.7,79,56,43,30.33,29.63,46,4,62,0.06
2013-11-14,45.1,40.8,37.0,32.3,30.2,28.9,75,66,58,29.71,29.66,33,1,48,0.00
2013-11-15,39.2,35.1,30.4,30.6,29.2,27.2,90,79,67,29.74,29.68,1,0,19,0.00
2013-12-12,15.7,13.5,12.4,4.2,0.7,-1.3,67,56,48,30.06,30.00,43,4,46,0.00
2013-12-13,13.5,9.3,6.7,5.2,0.7,-2.0,75,68,57,30.36,30.03,17,1,31,0.00
2013-12-14,16.1,11.7,8.4,8.5,3.3,-4.7,81,69,50,30.35,29.86,10,0,16,0.00
2013-12-15,18.1,15.5,13.3,15.4,9.3,5.1,89,76,61,29.99,29.69,51,4,57,0.00
2013-12-16,18.1,12.4,2.0,9.3,5.1,-4.2,82,72,57,30.05,29.80,16,1,31,0.00
2013-12-17,29.1,18.1,9.9,19.8,10.8,3.0,84,73,64,29.90,29.70,24,4,41,0.02
2013-12-18,20.5,16.9,14.6,10.4,7.1,5.1,75,65,58,29.94,29.62,19,2,32,0.00
2013-12-19,26.1,20.8,17.8,21.0,13.9,6.4,86,74,59,30.07,29.64,27,4,34,0.00
2013-12-20,24.5,22.4,20.0,18.8,16.6,14.6,86,78,71,30.04,29.83,11,2,17,0.00
2013-12-21,27.2,22.5,13.3,20.1,16.3,9.4,85,77,64,29.98,29.81,8,0,13,0.00
2013-12-22,27.3,24.3,20.2,20.5,17.8,14.7,86,76,63,30.05,29.88,19,6,31,0.00
2013-12-23,20.3,17.9,14.6,14.8,10.0,4.5,80,71,61,30.33,30.05,15,2,25,0.00
2013-12-24,20.8,15.5,12.1,7.8,4.3,0.3,76,62,41,30.41,30.21,19,2,46,0.00
2013-12-25,18.3,14.7,11.6,10.5,5.5,1.8,78,66,56,30.21,29.92,32,2,51,0.00
2013-12-26,18.8,14.6,6.7,8.2,4.7,0.2,75,65,50,30.17,29.93,18,2,36,0.01
2013-12-27,31.6,18.8,8.8,26.7,12.0,1.9,82,74,65,30.14,29.70,47,6,64,0.00
2013-12-28,35.9,32.6,25.8,31.3,28.7,23.6,94,86,76,29.87,29.72,18,1,31,0.07
2013-12-29,25.3,12.4,2.4,23.3,6.1,-6.0,92,76,63,30.08,29.80,24,3,38,0.00
2013-12-30,8.1,2.0,-3.7,-3.6,-7.9,-12.6,68,62,57,30.21,30.05,28,3,34,0.00
2013-12-31,6.3,0.4,-2.8,-7.8,-10.9,-12.9,64,58,45,30.31,30.01,39,5,42,0.00
2014-1-1,7.4,2.0,-4.1,-3.0,-8.3,-14.0,67,61,52,30.43,30.31,23,1,35,0.00
2014-1-2,8.3,4.8,0.9,0.7,-4.8,-8.4,75,64,58,30.38,30.32,18,2,33,0.00